createdAt,value
2024-03-08T00:00:22.295Z,58.55
2024-03-08T00:03:11.941Z,59.32
2024-03-08T00:05:40.658Z,59.45
2024-03-08T00:08:11.617Z,59.39
2024-03-08T00:10:40.671Z,59.31
2024-03-08T00:13:09.241Z,59.13
2024-03-08T00:15:37.661Z,58.88
2024-03-08T00:18:06.139Z,59.27
2024-03-08T00:20:34.808Z,59.63
2024-03-08T00:23:04.119Z,59.63
2024-03-08T00:25:32.528Z,59.97
2024-03-08T00:28:01.482Z,59.72
2024-03-08T00:30:29.893Z,59.01
2024-03-08T00:32:58.612Z,59.93
2024-03-08T00:35:27.226Z,59.84
2024-03-08T00:37:57.882Z,60.76
2024-03-08T00:40:26.279Z,61.35
2024-03-08T00:42:54.933Z,62.00
2024-03-08T00:45:25.071Z,61.54
2024-03-08T00:47:53.643Z,61.13
2024-03-08T00:50:22.145Z,61.39
2024-03-08T00:52:51.505Z,61.12
2024-03-08T00:55:19.850Z,60.36
2024-03-08T00:57:48.165Z,60.26
2024-03-08T01:00:16.954Z,60.61
2024-03-08T01:02:45.518Z,60.87
2024-03-08T01:05:15.067Z,61.08
2024-03-08T01:07:43.412Z,60.61
2024-03-08T01:10:11.926Z,60.73
2024-03-08T01:12:41.099Z,61.24
2024-03-08T01:15:12.027Z,60.87
2024-03-08T01:17:40.714Z,60.82
2024-03-08T01:20:12.617Z,60.77
2024-03-08T01:22:42.004Z,60.42
2024-03-08T01:25:10.415Z,61.36
2024-03-08T01:27:38.716Z,60.74
2024-03-08T01:30:07.870Z,61.07
2024-03-08T01:32:36.771Z,60.65
2024-03-08T01:35:05.706Z,61.00
2024-03-08T01:37:33.963Z,61.14
2024-03-08T01:40:02.243Z,61.82
2024-03-08T01:42:30.605Z,60.94
2024-03-08T01:44:59.269Z,62.08
2024-03-08T01:47:28.118Z,62.18
2024-03-08T01:49:56.674Z,62.23
2024-03-08T01:52:26.638Z,61.51
2024-03-08T01:54:55.345Z,62.83
2024-03-08T01:57:24.255Z,62.10
2024-03-08T01:59:55.930Z,61.44
2024-03-08T02:02:24.425Z,61.42
2024-03-08T02:04:54.486Z,62.28
2024-03-08T02:07:23.405Z,61.84
2024-03-08T02:09:52.491Z,61.57
2024-03-08T02:12:22.435Z,62.38
2024-03-08T02:14:50.955Z,62.06
2024-03-08T02:17:19.335Z,62.40
2024-03-08T02:19:47.931Z,61.41
2024-03-08T02:22:16.328Z,62.20
2024-03-08T02:24:44.894Z,61.94
2024-03-08T02:27:13.418Z,62.58
2024-03-08T02:29:44.085Z,63.17
2024-03-08T02:32:12.473Z,62.93
2024-03-08T02:34:40.797Z,62.99
2024-03-08T02:37:09.965Z,62.15
2024-03-08T02:39:38.257Z,62.88
2024-03-08T02:42:06.830Z,62.36
2024-03-08T02:44:35.227Z,61.82
2024-03-08T02:47:03.604Z,62.34
2024-03-08T02:49:32.285Z,62.24
2024-03-08T02:52:01.087Z,62.32
2024-03-08T02:54:29.650Z,61.90
2024-03-08T02:56:57.991Z,62.01
2024-03-08T02:59:26.290Z,62.00
2024-03-08T03:01:54.611Z,61.97
2024-03-08T03:04:22.898Z,61.79
2024-03-08T03:06:51.256Z,61.55
2024-03-08T03:09:24.992Z,62.22
2024-03-08T03:11:53.337Z,61.76
2024-03-08T03:14:23.225Z,62.10
2024-03-08T03:16:51.568Z,61.95
2024-03-08T03:19:19.864Z,62.11
2024-03-08T03:21:48.575Z,63.32
2024-03-08T03:24:17.947Z,62.63
2024-03-08T03:26:47.423Z,62.63
2024-03-08T03:29:17.004Z,62.50
2024-03-08T03:31:48.198Z,62.55
2024-03-08T03:34:16.803Z,62.56
2024-03-08T03:36:48.551Z,62.18
2024-03-08T03:39:21.480Z,62.22
2024-03-08T03:41:53.451Z,62.58
2024-03-08T03:44:21.813Z,63.35
2024-03-08T03:46:50.091Z,63.31
2024-03-08T03:49:18.488Z,64.12
2024-03-08T03:51:47.184Z,63.95
2024-03-08T03:54:15.582Z,64.40
2024-03-08T03:56:43.932Z,64.46
2024-03-08T03:59:13.406Z,63.94
2024-03-08T04:01:44.861Z,64.15
2024-03-08T04:04:13.888Z,64.06
2024-03-08T04:06:42.787Z,63.74
2024-03-08T04:09:11.297Z,62.73
2024-03-08T04:11:40.524Z,63.27
2024-03-08T04:14:09.100Z,62.67
2024-03-08T04:16:37.608Z,63.34
2024-03-08T04:19:06.009Z,64.02
2024-03-08T04:21:34.434Z,62.90
2024-03-08T04:24:02.827Z,63.61
2024-03-08T04:26:31.312Z,63.01
2024-03-08T04:28:59.688Z,64.04
2024-03-08T04:31:28.250Z,62.83
2024-03-08T04:33:56.750Z,62.65
2024-03-08T04:36:26.279Z,64.63
2024-03-08T04:38:54.673Z,63.92
2024-03-08T04:41:24.698Z,63.48
2024-03-08T04:43:53.543Z,64.11
2024-03-08T04:46:21.892Z,62.90
2024-03-08T04:48:50.209Z,63.66
2024-03-08T04:51:21.018Z,64.81
2024-03-08T04:53:49.513Z,64.64
2024-03-08T04:56:17.859Z,64.75
2024-03-08T04:58:49.581Z,63.72
2024-03-08T05:01:18.102Z,64.03
2024-03-08T05:03:47.159Z,63.74
2024-03-08T05:06:15.506Z,64.23
2024-03-08T05:08:44.148Z,63.22
2024-03-08T05:11:12.516Z,64.19
2024-03-08T05:13:41.474Z,64.48
2024-03-08T05:16:09.833Z,64.70
2024-03-08T05:18:38.210Z,64.90
2024-03-08T05:21:06.730Z,64.49
2024-03-08T05:23:35.653Z,64.31
2024-03-08T05:26:05.461Z,64.21
2024-03-08T05:28:34.826Z,64.26
2024-03-08T05:31:03.260Z,63.23
2024-03-08T05:33:31.750Z,63.48
2024-03-08T05:36:00.807Z,63.50
2024-03-08T05:38:29.637Z,64.03
2024-03-08T05:40:57.941Z,63.74
2024-03-08T05:43:26.292Z,63.34
2024-03-08T05:45:54.602Z,63.73
2024-03-08T05:48:23.942Z,63.89
2024-03-08T05:50:52.600Z,63.51
2024-03-08T05:53:21.140Z,63.71
2024-03-08T05:55:50.825Z,63.73
2024-03-08T05:58:19.138Z,63.27
2024-03-08T06:00:49.168Z,62.91
2024-03-08T06:03:22.982Z,63.21
2024-03-08T06:05:51.712Z,63.05
2024-03-08T06:08:20.467Z,63.01
2024-03-08T06:10:54.090Z,62.62
2024-03-08T06:13:22.953Z,62.72
2024-03-08T06:15:51.533Z,62.72
2024-03-08T06:18:20.040Z,62.25
2024-03-08T06:20:48.449Z,62.22
2024-03-08T06:23:19.365Z,61.03
2024-03-08T06:25:48.103Z,61.52
2024-03-08T06:28:16.517Z,61.62
2024-03-08T06:30:44.891Z,61.47
2024-03-08T06:33:13.336Z,61.26
2024-03-08T06:35:41.803Z,60.89
2024-03-08T06:38:10.377Z,61.06
2024-03-08T06:40:38.794Z,60.65
2024-03-08T06:43:07.462Z,60.33
2024-03-08T06:45:38.394Z,60.17
2024-03-08T06:48:11.263Z,59.10
2024-03-08T06:50:39.803Z,59.70
2024-03-08T06:53:08.214Z,59.59
2024-03-08T06:55:36.666Z,59.18
2024-03-08T06:58:05.523Z,58.99
2024-03-08T07:00:34.893Z,58.99
2024-03-08T07:03:03.800Z,56.75
2024-03-08T07:05:32.497Z,58.10
2024-03-08T07:08:01.472Z,57.52
2024-03-08T07:10:30.510Z,57.40
2024-03-08T07:12:58.894Z,57.43
2024-03-08T07:15:27.556Z,57.69
2024-03-08T07:17:56.573Z,56.32
2024-03-08T07:20:24.951Z,57.16
2024-03-08T07:22:53.442Z,55.60
2024-03-08T07:25:30.751Z,54.34
2024-03-08T07:27:59.232Z,53.96
2024-03-08T07:30:47.332Z,54.03
2024-03-08T07:33:16.108Z,55.43
2024-03-08T07:35:45.812Z,55.81
2024-03-08T07:38:14.613Z,53.69
2024-03-08T07:40:47.528Z,54.65
2024-03-08T07:43:16.258Z,54.50
2024-03-08T07:45:44.877Z,53.90
2024-03-08T07:48:14.606Z,53.68
2024-03-08T07:50:43.512Z,54.67
2024-03-08T07:53:12.137Z,53.19
2024-03-08T07:55:43.987Z,51.51
2024-03-08T07:58:12.568Z,52.24
2024-03-08T08:00:40.840Z,53.00
2024-03-08T08:03:10.167Z,53.05
2024-03-08T08:05:40.268Z,53.52
2024-03-08T08:08:12.732Z,52.03
2024-03-08T08:10:41.606Z,52.66
2024-03-08T08:13:10.095Z,53.17
2024-03-08T08:15:38.868Z,51.43
2024-03-08T08:18:08.038Z,52.61
2024-03-08T08:20:36.754Z,52.37
2024-03-08T08:23:05.285Z,52.64
2024-03-08T08:25:36.291Z,51.56
2024-03-08T08:28:05.899Z,51.60
2024-03-08T08:30:34.729Z,50.17
2024-03-08T08:33:03.511Z,51.45
2024-03-08T08:35:32.496Z,51.47
2024-03-08T08:38:01.017Z,51.46
2024-03-08T08:40:30.476Z,50.86
2024-03-08T08:43:02.251Z,51.04
2024-03-08T08:45:31.804Z,50.26
2024-03-08T08:48:01.733Z,50.33
2024-03-08T08:50:30.078Z,50.50
2024-03-08T08:52:58.831Z,48.23
2024-03-08T08:55:27.775Z,49.97
2024-03-08T08:57:57.802Z,49.48
2024-03-08T09:00:29.184Z,49.38
2024-03-08T09:02:59.651Z,49.20
2024-03-08T09:05:29.300Z,48.83
2024-03-08T09:07:58.177Z,48.98
2024-03-08T09:12:58.271Z,48.33
2024-03-08T09:15:30.311Z,48.76
2024-03-08T09:18:00.778Z,48.06
2024-03-08T09:20:30.971Z,46.89
2024-03-08T09:22:59.687Z,48.66
2024-03-08T09:25:28.130Z,48.03
2024-03-08T09:27:56.800Z,46.63
2024-03-08T09:30:25.322Z,47.01
2024-03-08T09:32:55.074Z,47.28
2024-03-08T09:35:25.084Z,47.04
2024-03-08T09:37:54.303Z,46.60
2024-03-08T09:40:25.691Z,47.24
2024-03-08T09:42:54.252Z,47.60
2024-03-08T09:45:26.498Z,47.75
2024-03-08T09:47:56.033Z,47.75
2024-03-08T09:50:24.530Z,47.40
2024-03-08T09:52:53.114Z,46.54
2024-03-08T09:55:24.274Z,46.37
2024-03-08T09:58:13.102Z,45.70
2024-03-08T10:00:42.272Z,46.95
2024-03-08T10:03:14.910Z,46.12
2024-03-08T10:05:46.100Z,46.41
2024-03-08T10:08:14.887Z,45.42
2024-03-08T10:10:44.425Z,46.28
2024-03-08T10:13:15.382Z,46.18
2024-03-08T10:15:44.935Z,45.90
2024-03-08T10:18:13.586Z,46.49
2024-03-08T10:20:42.421Z,46.31
2024-03-08T10:23:12.289Z,45.57
2024-03-08T10:25:41.251Z,45.17
2024-03-08T10:28:09.785Z,44.55
2024-03-08T10:30:39.064Z,45.03
2024-03-08T10:33:08.216Z,44.25
2024-03-08T10:35:36.749Z,44.98
2024-03-08T10:38:10.238Z,44.30
2024-03-08T10:40:41.479Z,44.79
2024-03-08T10:43:28.255Z,44.10
2024-03-08T10:46:18.767Z,44.40
2024-03-08T10:48:50.843Z,44.47
2024-03-08T10:51:20.797Z,44.34
2024-03-08T10:53:50.347Z,43.32
2024-03-08T10:56:18.890Z,44.03
2024-03-08T10:58:48.656Z,44.31
2024-03-08T11:01:17.672Z,44.38
2024-03-08T11:03:47.918Z,43.53
2024-03-08T11:06:40.141Z,44.80
2024-03-08T11:09:33.592Z,45.45
2024-03-08T11:12:21.323Z,44.91
2024-03-08T11:14:52.000Z,45.10
2024-03-08T11:17:29.600Z,45.81
2024-03-08T11:20:00.484Z,45.79
2024-03-08T11:22:32.778Z,45.68
2024-03-08T11:25:11.394Z,45.50
2024-03-08T11:27:40.419Z,45.50
2024-03-08T11:30:17.163Z,45.77
2024-03-08T11:32:50.337Z,45.90
2024-03-08T11:35:22.104Z,45.79
2024-03-08T11:37:50.855Z,45.94
2024-03-08T11:40:21.636Z,45.63
2024-03-08T11:42:53.258Z,45.64
2024-03-08T11:45:22.927Z,45.61
2024-03-08T11:47:52.376Z,45.41
2024-03-08T11:50:22.466Z,45.07
2024-03-08T11:52:52.030Z,44.83
2024-03-08T11:55:22.015Z,45.22
2024-03-08T11:57:51.416Z,44.70
2024-03-08T12:00:27.830Z,43.64
2024-03-08T12:03:07.818Z,43.71
2024-03-08T12:05:37.214Z,44.04
2024-03-08T12:08:08.715Z,43.03
2024-03-08T12:10:37.228Z,43.17
2024-03-08T12:13:08.372Z,42.43
2024-03-08T12:15:37.303Z,42.77
2024-03-08T12:18:06.439Z,43.22
2024-03-08T12:20:34.964Z,42.99
2024-03-08T12:23:03.648Z,42.87
2024-03-08T12:25:36.884Z,42.90
2024-03-08T12:28:14.171Z,43.41
2024-03-08T12:30:55.599Z,42.96
2024-03-08T12:33:24.289Z,43.03
2024-03-08T12:35:55.748Z,43.78
2024-03-08T12:38:29.168Z,43.61
2024-03-08T12:41:00.093Z,43.50
2024-03-08T12:43:32.417Z,43.65
2024-03-08T12:46:01.758Z,43.17
2024-03-08T12:48:36.900Z,43.97
2024-03-08T12:51:07.236Z,43.77
2024-03-08T12:53:35.729Z,43.45
2024-03-08T12:56:06.391Z,43.94
2024-03-08T12:58:35.628Z,44.04
2024-03-08T13:01:06.462Z,44.05
2024-03-08T13:03:38.831Z,44.27
2024-03-08T13:06:10.142Z,44.13
2024-03-08T13:08:41.801Z,44.19
2024-03-08T13:11:13.213Z,44.07
2024-03-08T13:13:42.123Z,43.84
2024-03-08T13:16:10.906Z,43.94
2024-03-08T13:18:39.484Z,44.11
2024-03-08T13:21:08.409Z,43.79
2024-03-08T13:23:40.820Z,43.62
2024-03-08T13:26:10.638Z,43.81
2024-03-08T13:28:39.369Z,43.81
2024-03-08T13:31:07.954Z,44.18
2024-03-08T13:33:37.079Z,44.32
2024-03-08T13:36:09.818Z,44.19
2024-03-08T13:38:39.769Z,43.97
2024-03-08T13:41:09.430Z,44.20
2024-03-08T13:43:38.622Z,44.73
2024-03-08T13:46:08.419Z,44.76
2024-03-08T13:48:38.814Z,45.00
2024-03-08T13:51:07.968Z,45.55
2024-03-08T13:53:36.449Z,45.71
2024-03-08T13:56:07.103Z,45.75
2024-03-08T13:58:36.689Z,45.99
2024-03-08T14:01:07.533Z,46.18
2024-03-08T14:03:37.588Z,46.55
2024-03-08T14:06:06.391Z,46.59
2024-03-08T14:08:34.719Z,47.20
2024-03-08T14:11:12.198Z,47.08
2024-03-08T14:13:47.384Z,47.48
2024-03-08T14:16:16.939Z,47.27
2024-03-08T14:18:45.447Z,47.85
2024-03-08T14:21:13.746Z,47.69
2024-03-08T14:23:44.970Z,48.09
2024-03-08T14:26:13.808Z,47.89
2024-03-08T14:28:42.367Z,47.86
2024-03-08T14:31:13.184Z,48.28
2024-03-08T14:33:43.613Z,48.03
2024-03-08T14:36:15.008Z,48.15
2024-03-08T14:38:43.829Z,48.25
2024-03-08T14:41:12.449Z,48.31
2024-03-08T14:43:40.901Z,48.44
2024-03-08T14:46:09.867Z,48.64
2024-03-08T14:48:38.494Z,49.51
2024-03-08T14:51:10.412Z,49.10
2024-03-08T14:53:41.933Z,49.30
2024-03-08T14:56:10.547Z,49.03
2024-03-08T14:58:39.362Z,49.36
2024-03-08T15:01:09.247Z,49.73
2024-03-08T15:03:40.948Z,50.36
2024-03-08T15:06:10.777Z,49.86
2024-03-08T15:08:40.125Z,50.31
2024-03-08T15:11:10.123Z,50.12
2024-03-08T15:13:42.833Z,49.87
2024-03-08T15:16:19.573Z,50.60
2024-03-08T15:18:52.283Z,50.26
2024-03-08T15:21:20.906Z,50.70
2024-03-08T15:23:51.783Z,50.76
2024-03-08T15:26:20.269Z,50.62
2024-03-08T15:28:53.494Z,51.18
2024-03-08T15:31:24.962Z,51.59
2024-03-08T15:33:59.986Z,52.07
2024-03-08T15:36:34.808Z,51.31
2024-03-08T15:39:04.367Z,51.77
2024-03-08T15:41:33.077Z,52.42
2024-03-08T15:44:01.625Z,51.79
2024-03-08T15:46:30.665Z,52.18
2024-03-08T15:48:59.049Z,52.11
2024-03-08T15:51:27.739Z,51.86
2024-03-08T15:53:57.904Z,52.59
2024-03-08T15:56:27.446Z,52.19
2024-03-08T15:58:56.968Z,52.83
2024-03-08T16:01:26.330Z,52.37
2024-03-08T16:03:56.324Z,53.17
2024-03-08T16:06:26.247Z,51.97
2024-03-08T16:08:54.995Z,52.29
2024-03-08T16:11:24.616Z,53.82
2024-03-08T16:13:53.580Z,53.25
2024-03-08T16:16:23.457Z,53.20
2024-03-08T16:18:52.752Z,53.89
2024-03-08T16:21:21.129Z,54.07
2024-03-08T16:23:50.126Z,52.91
2024-03-08T16:26:19.336Z,53.44
2024-03-08T16:28:47.736Z,53.46
2024-03-08T16:31:16.331Z,53.03
2024-03-08T16:33:46.216Z,53.84
2024-03-08T16:36:15.582Z,52.96
2024-03-08T16:38:46.750Z,53.59
2024-03-08T16:41:15.617Z,52.94
2024-03-08T16:43:45.388Z,53.03
2024-03-08T16:46:15.194Z,53.61
2024-03-08T16:48:44.048Z,53.81
2024-03-08T16:51:12.871Z,53.06
2024-03-08T16:53:43.160Z,52.90
2024-03-08T16:56:14.350Z,53.27
2024-03-08T16:58:44.099Z,53.61
2024-03-08T17:01:13.306Z,53.74
2024-03-08T17:03:48.364Z,54.29
2024-03-08T17:06:24.997Z,55.55
2024-03-08T17:08:53.948Z,54.21
2024-03-08T17:11:23.809Z,54.90
2024-03-08T17:13:52.430Z,53.86
2024-03-08T17:16:26.342Z,54.57
2024-03-08T17:18:55.572Z,56.11
2024-03-08T17:21:24.179Z,54.88
2024-03-08T17:23:52.523Z,55.30
2024-03-08T17:26:21.283Z,56.02
2024-03-08T17:28:51.306Z,55.35
2024-03-08T17:31:22.349Z,54.09
2024-03-08T17:33:50.910Z,55.43
2024-03-08T17:36:20.821Z,55.38
2024-03-08T17:38:52.000Z,56.09
2024-03-08T17:41:24.870Z,55.55
2024-03-08T17:43:54.365Z,56.41
2024-03-08T17:46:23.170Z,55.75
2024-03-08T17:48:55.470Z,56.94
2024-03-08T17:51:24.004Z,55.59
2024-03-08T17:53:52.615Z,56.51
2024-03-08T17:56:21.279Z,56.94
2024-03-08T17:58:52.599Z,57.13
2024-03-08T18:01:21.282Z,57.19
2024-03-08T18:03:50.886Z,56.59
2024-03-08T18:06:19.290Z,56.10
2024-03-08T18:08:47.788Z,57.83
2024-03-08T18:11:16.793Z,56.66
2024-03-08T18:13:45.425Z,56.99
2024-03-08T18:16:14.018Z,56.23
2024-03-08T18:18:42.347Z,57.37
2024-03-08T18:21:10.688Z,57.10
2024-03-08T18:23:38.987Z,57.21
2024-03-08T18:26:09.046Z,57.18
2024-03-08T18:28:39.617Z,57.17
2024-03-08T18:31:09.115Z,57.29
2024-03-08T18:33:37.442Z,58.39
2024-03-08T18:36:08.288Z,57.20
2024-03-08T18:38:36.709Z,58.88
2024-03-08T18:41:05.365Z,58.55
2024-03-08T18:43:35.493Z,57.96
2024-03-08T18:46:05.691Z,58.05
2024-03-08T18:48:34.261Z,58.53
2024-03-08T18:51:02.643Z,58.37
2024-03-08T18:53:31.809Z,58.18
2024-03-08T18:56:00.495Z,58.63
2024-03-08T18:58:42.265Z,59.18
2024-03-08T19:01:14.379Z,59.32
2024-03-08T19:03:43.505Z,59.03
2024-03-08T19:06:11.973Z,58.63
2024-03-08T19:08:40.357Z,58.86
2024-03-08T19:11:08.824Z,59.75
2024-03-08T19:13:37.552Z,60.01
2024-03-08T19:16:07.385Z,59.94
2024-03-08T19:18:36.269Z,60.25
2024-03-08T19:21:04.970Z,59.70
2024-03-08T19:23:36.132Z,60.31
2024-03-08T19:26:04.992Z,60.49
2024-03-08T19:28:34.997Z,60.63
2024-03-08T19:31:03.855Z,60.44
2024-03-08T19:33:32.713Z,60.43
2024-03-08T19:36:01.763Z,60.03
2024-03-08T19:38:32.668Z,59.75
2024-03-08T19:41:01.177Z,59.29
2024-03-08T19:43:30.101Z,59.93
2024-03-08T19:45:59.495Z,59.70
2024-03-08T19:48:27.951Z,59.56
2024-03-08T19:50:57.077Z,59.62
2024-03-08T19:53:25.409Z,60.82
2024-03-08T19:55:54.937Z,60.54
2024-03-08T19:58:23.778Z,60.09
2024-03-08T20:00:52.526Z,59.99
2024-03-08T20:03:25.330Z,59.81
2024-03-08T20:05:57.257Z,60.52
2024-03-08T20:08:30.510Z,59.53
2024-03-08T20:11:05.212Z,61.73
2024-03-08T20:13:36.342Z,60.18
2024-03-08T20:16:06.191Z,59.91
2024-03-08T20:18:36.563Z,60.85
2024-03-08T20:21:05.210Z,59.05
2024-03-08T20:23:33.651Z,58.89
2024-03-08T20:26:06.627Z,59.76
2024-03-08T20:28:35.147Z,60.41
2024-03-08T20:31:03.573Z,58.98
2024-03-08T20:33:33.594Z,58.71
2024-03-08T20:36:02.745Z,57.68
2024-03-08T20:38:31.565Z,58.10
2024-03-08T20:40:59.954Z,59.21
2024-03-08T20:43:28.325Z,59.82
2024-03-08T20:45:56.922Z,59.78
2024-03-08T20:48:26.307Z,60.67
2024-03-08T20:50:55.825Z,60.78
2024-03-08T20:53:24.217Z,61.15
2024-03-08T20:55:54.288Z,61.67
2024-03-08T20:58:24.406Z,61.56
2024-03-08T21:00:56.556Z,60.50
2024-03-08T21:03:26.553Z,61.58
2024-03-08T21:05:55.805Z,62.58
2024-03-08T21:08:30.560Z,62.49
2024-03-08T21:10:59.975Z,61.71
2024-03-08T21:13:29.193Z,62.44
2024-03-08T21:15:59.306Z,63.02
2024-03-08T21:18:28.274Z,62.89
2024-03-08T21:20:57.225Z,62.39
2024-03-08T21:23:26.883Z,62.42
2024-03-08T21:25:55.555Z,63.87
2024-03-08T21:28:31.156Z,64.18
2024-03-08T21:31:02.282Z,64.04
2024-03-08T21:33:30.868Z,64.14
2024-03-08T21:36:00.787Z,63.52
2024-03-08T21:38:29.361Z,64.10
2024-03-08T21:41:03.583Z,63.31
2024-03-08T21:43:36.540Z,64.41
2024-03-08T21:46:05.572Z,63.54
2024-03-08T21:48:34.394Z,63.96
2024-03-08T21:51:02.948Z,62.59
2024-03-08T21:53:35.393Z,62.20
2024-03-08T21:56:06.461Z,62.59
2024-03-08T21:58:35.931Z,63.71
2024-03-08T22:01:06.383Z,64.30
2024-03-08T22:03:37.369Z,63.60
2024-03-08T22:06:11.864Z,63.88
2024-03-08T22:08:43.663Z,62.98
2024-03-08T22:11:14.660Z,63.40
2024-03-08T22:13:47.166Z,63.28
2024-03-08T22:16:15.635Z,62.70
2024-03-08T22:18:44.108Z,62.86
2024-03-08T22:21:12.891Z,62.95
2024-03-08T22:23:41.275Z,63.30
2024-03-08T22:26:14.530Z,63.58
2024-03-08T22:28:44.889Z,63.49
2024-03-08T22:31:13.830Z,63.28
2024-03-08T22:33:42.181Z,62.63
2024-03-08T22:36:12.717Z,63.07
2024-03-08T22:38:41.712Z,63.23
2024-03-08T22:41:12.010Z,63.68
2024-03-08T22:43:42.667Z,63.78
2024-03-08T22:46:12.713Z,63.73
2024-03-08T22:48:43.085Z,63.38
2024-03-08T22:51:13.502Z,63.23
2024-03-08T22:53:43.105Z,63.74
2024-03-08T22:56:12.717Z,63.82
2024-03-08T22:58:45.705Z,62.44
2024-03-08T23:01:18.101Z,64.43
2024-03-08T23:03:47.874Z,64.83
2024-03-08T23:06:22.785Z,64.86
2024-03-08T23:08:52.532Z,63.57
2024-03-08T23:11:23.727Z,65.29
2024-03-08T23:13:52.694Z,63.41
2024-03-08T23:16:22.111Z,63.18
2024-03-08T23:18:51.203Z,63.21
2024-03-08T23:21:20.597Z,63.93
2024-03-08T23:23:51.839Z,65.25
2024-03-08T23:26:20.670Z,64.87
2024-03-08T23:28:49.376Z,64.25
2024-03-08T23:31:17.969Z,63.35
2024-03-08T23:33:48.192Z,64.25
2024-03-08T23:36:17.553Z,64.35
2024-03-08T23:38:46.374Z,62.88
2024-03-08T23:41:15.957Z,63.81
2024-03-08T23:43:45.035Z,64.76
2024-03-08T23:46:13.772Z,63.97
2024-03-08T23:48:42.578Z,63.36
2024-03-08T23:51:11.703Z,63.54
2024-03-08T23:53:40.102Z,64.10
2024-03-08T23:56:10.278Z,64.74
2024-03-08T23:58:38.925Z,65.43
